sensor_id;sensor_type;location;lat;lon;timestamp;pressure;altitude;pressure_sealevel;temperature;humidity
45040;BME280;30778;53.574;7.770;2022-10-16T00:01:19;100772.75;;;9.94;56.67
45040;BME280;30778;53.574;7.770;2022-10-16T00:03:47;100771.50;;;10.04;56.11
45040;BME280;30778;53.574;7.770;2022-10-16T00:06:14;100772.28;;;10.06;56.08
45040;BME280;30778;53.574;7.770;2022-10-16T00:08:40;100782.38;;;10.15;55.73
45040;BME280;30778;53.574;7.770;2022-10-16T00:13:36;100789.41;;;10.13;55.73
45040;BME280;30778;53.574;7.770;2022-10-16T00:16:02;100794.25;;;10.00;56.11
45040;BME280;30778;53.574;7.770;2022-10-16T00:18:29;100792.75;;;10.17;55.58
45040;BME280;30778;53.574;7.770;2022-10-16T00:20:55;100792.31;;;10.28;55.19
45040;BME280;30778;53.574;7.770;2022-10-16T00:23:21;100796.66;;;9.83;56.55
45040;BME280;30778;53.574;7.770;2022-10-16T00:25:57;100797.63;;;9.80;56.63
45040;BME280;30778;53.574;7.770;2022-10-16T00:28:23;100794.31;;;9.75;56.47
45040;BME280;30778;53.574;7.770;2022-10-16T00:30:49;100796.59;;;9.37;57.42
45040;BME280;30778;53.574;7.770;2022-10-16T00:33:15;100800.66;;;9.45;57.70
45040;BME280;30778;53.574;7.770;2022-10-16T00:35:40;100793.06;;;9.62;57.09
45040;BME280;30778;53.574;7.770;2022-10-16T00:38:06;100789.44;;;9.90;56.16
45040;BME280;30778;53.574;7.770;2022-10-16T00:40:31;100794.03;;;9.83;56.19
45040;BME280;30778;53.574;7.770;2022-10-16T00:42:57;100789.75;;;9.82;56.58
45040;BME280;30778;53.574;7.770;2022-10-16T00:45:22;100789.22;;;9.72;56.78
45040;BME280;30778;53.574;7.770;2022-10-16T00:47:50;100791.81;;;9.96;56.12
45040;BME280;30778;53.574;7.770;2022-10-16T00:50:31;100799.09;;;10.10;55.61
45040;BME280;30778;53.574;7.770;2022-10-16T00:52:58;100798.75;;;9.97;55.81
45040;BME280;30778;53.574;7.770;2022-10-16T00:55:26;100796.41;;;10.13;55.47
45040;BME280;30778;53.574;7.770;2022-10-16T00:57:53;100785.16;;;10.11;55.61
45040;BME280;30778;53.574;7.770;2022-10-16T01:00:24;100791.59;;;10.02;55.97
45040;BME280;30778;53.574;7.770;2022-10-16T01:02:56;100795.34;;;9.95;55.80
45040;BME280;30778;53.574;7.770;2022-10-16T01:05:44;100796.31;;;10.14;55.57
45040;BME280;30778;53.574;7.770;2022-10-16T01:08:22;100788.66;;;10.32;55.10
45040;BME280;30778;53.574;7.770;2022-10-16T01:11:01;100783.06;;;10.41;54.55
45040;BME280;30778;53.574;7.770;2022-10-16T01:13:35;100787.88;;;10.30;55.50
45040;BME280;30778;53.574;7.770;2022-10-16T01:16:18;100790.84;;;10.20;55.07
45040;BME280;30778;53.574;7.770;2022-10-16T01:18:51;100791.94;;;10.37;54.53
45040;BME280;30778;53.574;7.770;2022-10-16T01:21:28;100787.34;;;10.21;54.97
45040;BME280;30778;53.574;7.770;2022-10-16T01:29:47;100800.09;;;10.07;55.74
45040;BME280;30778;53.574;7.770;2022-10-16T01:32:23;100795.00;;;10.26;54.87
45040;BME280;30778;53.574;7.770;2022-10-16T01:34:59;100801.72;;;10.10;55.40
45040;BME280;30778;53.574;7.770;2022-10-16T01:37:51;100796.44;;;10.11;54.98
45040;BME280;30778;53.574;7.770;2022-10-16T01:40:19;100791.59;;;10.24;54.41
45040;BME280;30778;53.574;7.770;2022-10-16T01:42:51;100807.50;;;9.96;55.41
45040;BME280;30778;53.574;7.770;2022-10-16T01:45:19;100802.25;;;9.96;55.62
45040;BME280;30778;53.574;7.770;2022-10-16T01:47:46;100802.03;;;9.78;56.03
45040;BME280;30778;53.574;7.770;2022-10-16T01:50:15;100797.19;;;9.93;55.62
45040;BME280;30778;53.574;7.770;2022-10-16T01:52:44;100809.22;;;9.72;56.33
45040;BME280;30778;53.574;7.770;2022-10-16T01:55:15;100803.41;;;9.89;55.38
45040;BME280;30778;53.574;7.770;2022-10-16T01:57:43;100809.00;;;9.78;55.54
45040;BME280;30778;53.574;7.770;2022-10-16T02:00:12;100809.97;;;9.75;55.97
45040;BME280;30778;53.574;7.770;2022-10-16T02:02:45;100810.78;;;9.77;55.92
45040;BME280;30778;53.574;7.770;2022-10-16T02:05:21;100809.28;;;9.47;56.98
45040;BME280;30778;53.574;7.770;2022-10-16T02:07:49;100806.09;;;9.38;57.18
45040;BME280;30778;53.574;7.770;2022-10-16T02:10:16;100811.78;;;9.26;57.37
45040;BME280;30778;53.574;7.770;2022-10-16T02:12:46;100804.66;;;9.55;56.65
45040;BME280;30778;53.574;7.770;2022-10-16T02:15:13;100808.84;;;9.59;56.36
45040;BME280;30778;53.574;7.770;2022-10-16T02:17:38;100806.88;;;9.66;56.05
45040;BME280;30778;53.574;7.770;2022-10-16T02:20:04;100805.66;;;9.51;56.54
45040;BME280;30778;53.574;7.770;2022-10-16T02:22:38;100815.31;;;9.49;56.90
45040;BME280;30778;53.574;7.770;2022-10-16T02:25:09;100812.13;;;9.64;56.07
45040;BME280;30778;53.574;7.770;2022-10-16T02:27:44;100815.13;;;9.53;56.68
45040;BME280;30778;53.574;7.770;2022-10-16T02:30:19;100815.94;;;9.55;56.62
45040;BME280;30778;53.574;7.770;2022-10-16T02:32:47;100808.16;;;9.77;56.15
45040;BME280;30778;53.574;7.770;2022-10-16T02:35:16;100803.25;;;9.93;55.42
45040;BME280;30778;53.574;7.770;2022-10-16T02:37:44;100796.81;;;10.02;55.53
45040;BME280;30778;53.574;7.770;2022-10-16T02:40:11;100799.28;;;10.05;55.44
45040;BME280;30778;53.574;7.770;2022-10-16T02:42:39;100793.63;;;9.94;55.63
45040;BME280;30778;53.574;7.770;2022-10-16T02:45:06;100802.50;;;9.90;56.02
45040;BME280;30778;53.574;7.770;2022-10-16T02:47:32;100805.06;;;9.91;56.24
45040;BME280;30778;53.574;7.770;2022-10-16T02:49:57;100791.41;;;10.07;55.54
45040;BME280;30778;53.574;7.770;2022-10-16T02:52:23;100793.03;;;10.09;55.34
45040;BME280;30778;53.574;7.770;2022-10-16T02:54:48;100800.47;;;10.20;55.32
45040;BME280;30778;53.574;7.770;2022-10-16T02:57:14;100797.53;;;10.28;54.88
45040;BME280;30778;53.574;7.770;2022-10-16T02:59:39;100797.84;;;10.20;55.46
45040;BME280;30778;53.574;7.770;2022-10-16T03:02:05;100799.78;;;10.37;54.67
45040;BME280;30778;53.574;7.770;2022-10-16T03:04:30;100807.63;;;9.93;55.82
45040;BME280;30778;53.574;7.770;2022-10-16T03:06:56;100793.97;;;10.08;55.54
45040;BME280;30778;53.574;7.770;2022-10-16T03:09:21;100799.00;;;10.35;54.69
45040;BME280;30778;53.574;7.770;2022-10-16T03:11:47;100807.88;;;10.31;54.67
45040;BME280;30778;53.574;7.770;2022-10-16T03:14:12;100804.34;;;10.32;54.76
45040;BME280;30778;53.574;7.770;2022-10-16T03:16:38;100814.19;;;10.25;55.09
45040;BME280;30778;53.574;7.770;2022-10-16T03:19:03;100814.03;;;10.50;54.35
45040;BME280;30778;53.574;7.770;2022-10-16T03:21:29;100814.06;;;10.06;55.23
45040;BME280;30778;53.574;7.770;2022-10-16T03:23:54;100817.34;;;10.55;53.74
45040;BME280;30778;53.574;7.770;2022-10-16T03:26:20;100819.53;;;10.44;54.39
45040;BME280;30778;53.574;7.770;2022-10-16T03:28:45;100826.97;;;10.33;54.44
45040;BME280;30778;53.574;7.770;2022-10-16T03:31:11;100810.66;;;10.48;54.20
45040;BME280;30778;53.574;7.770;2022-10-16T03:33:36;100819.69;;;10.61;53.63
45040;BME280;30778;53.574;7.770;2022-10-16T03:36:02;100829.84;;;10.69;53.27
45040;BME280;30778;53.574;7.770;2022-10-16T03:38:27;100830.94;;;10.63;53.45
45040;BME280;30778;53.574;7.770;2022-10-16T03:40:52;100832.25;;;10.74;53.31
45040;BME280;30778;53.574;7.770;2022-10-16T03:43:18;100830.47;;;10.32;54.34
45040;BME280;30778;53.574;7.770;2022-10-16T03:45:44;100832.41;;;10.71;53.35
45040;BME280;30778;53.574;7.770;2022-10-16T03:48:09;100836.53;;;10.54;53.75
45040;BME280;30778;53.574;7.770;2022-10-16T03:50:35;100847.97;;;10.52;54.11
45040;BME280;30778;53.574;7.770;2022-10-16T03:53:00;100851.91;;;10.62;53.54
45040;BME280;30778;53.574;7.770;2022-10-16T03:55:26;100850.16;;;10.62;53.61
45040;BME280;30778;53.574;7.770;2022-10-16T03:57:51;100843.84;;;10.46;54.28
45040;BME280;30778;53.574;7.770;2022-10-16T04:00:17;100840.06;;;10.53;54.08
45040;BME280;30778;53.574;7.770;2022-10-16T04:02:42;100849.22;;;10.63;53.80
45040;BME280;30778;53.574;7.770;2022-10-16T04:05:08;100847.59;;;10.61;53.79
45040;BME280;30778;53.574;7.770;2022-10-16T04:07:33;100849.78;;;10.28;54.66
45040;BME280;30778;53.574;7.770;2022-10-16T04:09:59;100847.16;;;10.72;53.43
45040;BME280;30778;53.574;7.770;2022-10-16T04:12:26;100854.84;;;10.75;53.33
45040;BME280;30778;53.574;7.770;2022-10-16T04:14:51;100852.44;;;10.70;53.45
45040;BME280;30778;53.574;7.770;2022-10-16T04:17:17;100850.00;;;10.66;53.79
45040;BME280;30778;53.574;7.770;2022-10-16T04:19:42;100852.94;;;10.36;55.41
45040;BME280;30778;53.574;7.770;2022-10-16T04:22:08;100857.44;;;10.54;54.01
45040;BME280;30778;53.574;7.770;2022-10-16T04:24:33;100853.78;;;10.58;53.71
45040;BME280;30778;53.574;7.770;2022-10-16T04:26:59;100856.47;;;10.57;53.80
45040;BME280;30778;53.574;7.770;2022-10-16T04:29:24;100855.75;;;10.53;54.10
45040;BME280;30778;53.574;7.770;2022-10-16T04:31:50;100857.44;;;10.54;53.89
45040;BME280;30778;53.574;7.770;2022-10-16T04:34:15;100842.66;;;10.09;55.16
45040;BME280;30778;53.574;7.770;2022-10-16T04:36:41;100845.91;;;10.38;54.49
45040;BME280;30778;53.574;7.770;2022-10-16T04:39:06;100846.03;;;10.35;54.25
45040;BME280;30778;53.574;7.770;2022-10-16T04:41:32;100835.91;;;10.26;54.36
45040;BME280;30778;53.574;7.770;2022-10-16T04:43:57;100845.06;;;9.92;55.30
45040;BME280;30778;53.574;7.770;2022-10-16T04:46:23;100852.84;;;10.17;54.75
45040;BME280;30778;53.574;7.770;2022-10-16T04:48:48;100856.69;;;10.07;54.68
45040;BME280;30778;53.574;7.770;2022-10-16T04:51:14;100864.22;;;10.14;54.25
45040;BME280;30778;53.574;7.770;2022-10-16T04:53:39;100868.16;;;10.02;54.99
45040;BME280;30778;53.574;7.770;2022-10-16T04:56:05;100870.63;;;9.84;55.66
45040;BME280;30778;53.574;7.770;2022-10-16T04:58:30;100872.50;;;10.04;54.62
45040;BME280;30778;53.574;7.770;2022-10-16T05:00:56;100885.16;;;9.91;55.06
45040;BME280;30778;53.574;7.770;2022-10-16T05:03:21;100880.44;;;9.75;55.71
45040;BME280;30778;53.574;7.770;2022-10-16T05:05:47;100879.75;;;9.95;54.87
45040;BME280;30778;53.574;7.770;2022-10-16T05:08:14;100889.44;;;9.92;54.90
45040;BME280;30778;53.574;7.770;2022-10-16T05:10:44;100876.19;;;9.73;55.87
45040;BME280;30778;53.574;7.770;2022-10-16T05:13:09;100882.63;;;9.88;54.80
45040;BME280;30778;53.574;7.770;2022-10-16T05:15:35;100890.84;;;9.77;55.33
45040;BME280;30778;53.574;7.770;2022-10-16T05:18:01;100891.72;;;9.76;55.14
45040;BME280;30778;53.574;7.770;2022-10-16T05:20:26;100899.81;;;9.45;56.61
45040;BME280;30778;53.574;7.770;2022-10-16T05:22:52;100894.56;;;9.70;55.33
45040;BME280;30778;53.574;7.770;2022-10-16T05:25:17;100893.72;;;9.69;55.86
45040;BME280;30778;53.574;7.770;2022-10-16T05:27:46;100892.66;;;9.75;55.34
45040;BME280;30778;53.574;7.770;2022-10-16T05:30:12;100897.25;;;9.68;56.13
45040;BME280;30778;53.574;7.770;2022-10-16T05:32:37;100900.28;;;9.81;55.77
45040;BME280;30778;53.574;7.770;2022-10-16T05:35:02;100905.34;;;9.86;55.61
45040;BME280;30778;53.574;7.770;2022-10-16T05:37:28;100911.50;;;9.83;55.71
45040;BME280;30778;53.574;7.770;2022-10-16T05:39:53;100904.19;;;9.68;56.40
45040;BME280;30778;53.574;7.770;2022-10-16T05:42:19;100912.03;;;9.68;56.33
45040;BME280;30778;53.574;7.770;2022-10-16T05:44:44;100912.47;;;9.80;56.07
45040;BME280;30778;53.574;7.770;2022-10-16T05:47:12;100913.84;;;9.40;56.95
45040;BME280;30778;53.574;7.770;2022-10-16T05:49:38;100920.50;;;9.49;56.93
45040;BME280;30778;53.574;7.770;2022-10-16T05:52:03;100925.16;;;9.66;56.53
45040;BME280;30778;53.574;7.770;2022-10-16T05:54:29;100923.75;;;9.56;56.66
45040;BME280;30778;53.574;7.770;2022-10-16T05:56:54;100933.75;;;9.43;57.16
45040;BME280;30778;53.574;7.770;2022-10-16T05:59:19;100940.00;;;9.39;57.49
45040;BME280;30778;53.574;7.770;2022-10-16T06:01:45;100938.41;;;9.85;56.19
45040;BME280;30778;53.574;7.770;2022-10-16T06:04:11;100933.72;;;9.95;55.70
45040;BME280;30778;53.574;7.770;2022-10-16T06:06:36;100940.38;;;9.78;56.46
45040;BME280;30778;53.574;7.770;2022-10-16T06:09:03;100924.50;;;10.32;54.95
45040;BME280;30778;53.574;7.770;2022-10-16T06:11:30;100924.84;;;10.46;54.42
45040;BME280;30778;53.574;7.770;2022-10-16T06:13:58;100932.91;;;10.40;54.63
45040;BME280;30778;53.574;7.770;2022-10-16T06:16:25;100918.66;;;10.49;54.71
45040;BME280;30778;53.574;7.770;2022-10-16T06:18:52;100916.88;;;10.49;54.76
45040;BME280;30778;53.574;7.770;2022-10-16T06:21:21;100926.22;;;10.33;55.18
45040;BME280;30778;53.574;7.770;2022-10-16T06:23:47;100938.00;;;10.43;55.19
45040;BME280;30778;53.574;7.770;2022-10-16T06:26:14;100940.84;;;10.60;54.85
45040;BME280;30778;53.574;7.770;2022-10-16T06:28:41;100928.56;;;10.62;54.54
45040;BME280;30778;53.574;7.770;2022-10-16T06:31:08;100926.25;;;10.77;54.40
45040;BME280;30778;53.574;7.770;2022-10-16T06:33:35;100932.34;;;10.77;54.41
45040;BME280;30778;53.574;7.770;2022-10-16T06:36:12;100942.38;;;10.88;54.13
45040;BME280;30778;53.574;7.770;2022-10-16T06:38:38;100947.75;;;10.61;54.75
45040;BME280;30778;53.574;7.770;2022-10-16T06:41:05;100942.47;;;10.87;54.16
45040;BME280;30778;53.574;7.770;2022-10-16T06:43:32;100952.78;;;10.90;53.82
45040;BME280;30778;53.574;7.770;2022-10-16T06:45:58;100962.53;;;10.86;53.91
45040;BME280;30778;53.574;7.770;2022-10-16T06:48:24;100953.78;;;10.63;54.95
45040;BME280;30778;53.574;7.770;2022-10-16T06:51:12;100961.97;;;11.00;54.23
45040;BME280;30778;53.574;7.770;2022-10-16T06:53:40;100963.84;;;11.18;53.67
45040;BME280;30778;53.574;7.770;2022-10-16T06:56:17;100964.91;;;11.13;53.67
45040;BME280;30778;53.574;7.770;2022-10-16T06:58:44;100973.38;;;11.19;53.64
45040;BME280;30778;53.574;7.770;2022-10-16T07:01:11;100970.84;;;11.18;53.62
45040;BME280;30778;53.574;7.770;2022-10-16T07:03:38;100969.22;;;11.56;52.99
45040;BME280;30778;53.574;7.770;2022-10-16T07:06:06;100969.47;;;11.71;52.46
45040;BME280;30778;53.574;7.770;2022-10-16T07:08:35;100981.16;;;12.04;52.07
45040;BME280;30778;53.574;7.770;2022-10-16T07:11:03;100976.19;;;13.98;49.63
45040;BME280;30778;53.574;7.770;2022-10-16T07:13:30;100980.00;;;15.05;44.89
45040;BME280;30778;53.574;7.770;2022-10-16T07:15:57;100976.59;;;14.23;44.85
45040;BME280;30778;53.574;7.770;2022-10-16T07:18:23;100991.22;;;13.43;47.25
45040;BME280;30778;53.574;7.770;2022-10-16T07:20:52;100987.00;;;14.58;45.41
45040;BME280;30778;53.574;7.770;2022-10-16T07:23:18;100993.47;;;14.68;44.53
45040;BME280;30778;53.574;7.770;2022-10-16T07:25:43;100991.44;;;15.20;44.20
45040;BME280;30778;53.574;7.770;2022-10-16T07:28:08;100994.63;;;16.57;41.58
45040;BME280;30778;53.574;7.770;2022-10-16T07:30:35;100999.03;;;15.70;42.12
45040;BME280;30778;53.574;7.770;2022-10-16T07:33:02;101018.66;;;14.23;45.54
45040;BME280;30778;53.574;7.770;2022-10-16T07:35:28;101021.31;;;13.19;48.03
45040;BME280;30778;53.574;7.770;2022-10-16T07:37:54;101022.34;;;12.59;50.19
45040;BME280;30778;53.574;7.770;2022-10-16T07:40:19;101038.81;;;12.23;51.33
45040;BME280;30778;53.574;7.770;2022-10-16T07:42:45;101045.06;;;10.93;55.28
45040;BME280;30778;53.574;7.770;2022-10-16T07:45:10;101037.34;;;11.75;53.08
45040;BME280;30778;53.574;7.770;2022-10-16T07:47:35;101051.50;;;11.71;53.49
45040;BME280;30778;53.574;7.770;2022-10-16T07:50:01;101042.47;;;12.19;52.99
45040;BME280;30778;53.574;7.770;2022-10-16T07:52:26;101039.81;;;12.40;52.29
45040;BME280;30778;53.574;7.770;2022-10-16T07:54:52;101042.25;;;13.38;49.28
45040;BME280;30778;53.574;7.770;2022-10-16T07:57:17;101041.94;;;11.70;53.04
45040;BME280;30778;53.574;7.770;2022-10-16T07:59:45;101055.28;;;11.64;53.17
45040;BME280;30778;53.574;7.770;2022-10-16T08:02:11;101053.63;;;11.19;54.47
45040;BME280;30778;53.574;7.770;2022-10-16T08:04:37;101054.41;;;11.85;52.77
45040;BME280;30778;53.574;7.770;2022-10-16T08:07:03;101076.66;;;12.37;52.08
45040;BME280;30778;53.574;7.770;2022-10-16T08:09:28;101055.00;;;13.45;49.34
45040;BME280;30778;53.574;7.770;2022-10-16T08:11:54;101062.25;;;14.27;47.13
45040;BME280;30778;53.574;7.770;2022-10-16T08:14:19;101075.09;;;14.16;47.53
45040;BME280;30778;53.574;7.770;2022-10-16T08:16:45;101071.22;;;13.53;48.74
45040;BME280;30778;53.574;7.770;2022-10-16T08:19:10;101076.34;;;14.26;47.66
45040;BME280;30778;53.574;7.770;2022-10-16T08:21:35;101086.13;;;14.89;46.17
45040;BME280;30778;53.574;7.770;2022-10-16T08:24:01;101081.06;;;15.02;45.27
45040;BME280;30778;53.574;7.770;2022-10-16T08:26:27;101079.59;;;14.96;45.13
45040;BME280;30778;53.574;7.770;2022-10-16T08:28:53;101061.66;;;14.22;45.81
45040;BME280;30778;53.574;7.770;2022-10-16T08:31:19;101085.28;;;16.41;43.22
45040;BME280;30778;53.574;7.770;2022-10-16T08:33:45;101086.97;;;16.86;40.24
45040;BME280;30778;53.574;7.770;2022-10-16T08:36:13;101094.97;;;16.55;41.04
45040;BME280;30778;53.574;7.770;2022-10-16T08:38:39;101094.59;;;15.88;42.94
45040;BME280;30778;53.574;7.770;2022-10-16T08:46:45;101105.59;;;15.34;44.54
45040;BME280;30778;53.574;7.770;2022-10-16T08:49:15;101101.53;;;14.48;45.00
45040;BME280;30778;53.574;7.770;2022-10-16T08:51:41;101112.63;;;14.70;45.18
45040;BME280;30778;53.574;7.770;2022-10-16T08:54:30;101121.75;;;15.44;44.09
45040;BME280;30778;53.574;7.770;2022-10-16T08:57:04;101125.56;;;14.23;45.64
45040;BME280;30778;53.574;7.770;2022-10-16T08:59:33;101131.72;;;13.52;47.33
45040;BME280;30778;53.574;7.770;2022-10-16T09:01:59;101143.13;;;14.22;46.02
45040;BME280;30778;53.574;7.770;2022-10-16T09:04:49;101139.72;;;14.20;46.47
45040;BME280;30778;53.574;7.770;2022-10-16T09:12:40;101146.97;;;12.87;49.39
45040;BME280;30778;53.574;7.770;2022-10-16T09:20:45;101152.25;;;13.80;47.58
45040;BME280;30778;53.574;7.770;2022-10-16T09:23:29;101168.94;;;14.66;46.00
45040;BME280;30778;53.574;7.770;2022-10-16T09:25:56;101165.34;;;14.85;45.30
45040;BME280;30778;53.574;7.770;2022-10-16T09:28:23;101169.41;;;15.55;43.94
45040;BME280;30778;53.574;7.770;2022-10-16T09:30:49;101168.50;;;15.07;44.81
45040;BME280;30778;53.574;7.770;2022-10-16T09:33:16;101169.13;;;14.28;45.69
45040;BME280;30778;53.574;7.770;2022-10-16T09:35:48;101178.78;;;14.28;46.32
45040;BME280;30778;53.574;7.770;2022-10-16T09:38:29;101177.75;;;14.65;45.63
45040;BME280;30778;53.574;7.770;2022-10-16T09:40:57;101190.59;;;15.05;44.44
45040;BME280;30778;53.574;7.770;2022-10-16T09:43:24;101194.78;;;14.58;45.88
45040;BME280;30778;53.574;7.770;2022-10-16T09:45:58;101201.56;;;14.80;45.26
45040;BME280;30778;53.574;7.770;2022-10-16T09:48:26;101210.09;;;15.01;44.40
45040;BME280;30778;53.574;7.770;2022-10-16T09:51:01;101205.78;;;15.00;44.42
45040;BME280;30778;53.574;7.770;2022-10-16T09:53:45;101210.34;;;14.28;45.09
45040;BME280;30778;53.574;7.770;2022-10-16T09:56:20;101211.66;;;14.54;45.36
45040;BME280;30778;53.574;7.770;2022-10-16T09:58:50;101213.38;;;15.85;43.47
45040;BME280;30778;53.574;7.770;2022-10-16T10:01:17;101218.97;;;15.95;42.90
45040;BME280;30778;53.574;7.770;2022-10-16T10:03:43;101224.53;;;15.43;43.58
45040;BME280;30778;53.574;7.770;2022-10-16T10:06:25;101215.84;;;14.23;45.46
45040;BME280;30778;53.574;7.770;2022-10-16T10:08:59;101222.19;;;14.54;45.17
45040;BME280;30778;53.574;7.770;2022-10-16T10:16:44;101230.53;;;14.62;44.47
45040;BME280;30778;53.574;7.770;2022-10-16T10:19:17;101240.72;;;14.86;45.05
45040;BME280;30778;53.574;7.770;2022-10-16T10:21:44;101245.00;;;14.71;44.55
45040;BME280;30778;53.574;7.770;2022-10-16T10:24:16;101245.41;;;15.30;43.58
45040;BME280;30778;53.574;7.770;2022-10-16T10:27:02;101252.16;;;14.85;44.96
45040;BME280;30778;53.574;7.770;2022-10-16T10:29:36;101252.50;;;14.07;45.57
45040;BME280;30778;53.574;7.770;2022-10-16T10:35:04;101257.06;;;14.75;44.21
45040;BME280;30778;53.574;7.770;2022-10-16T10:42:48;101267.13;;;14.84;44.08
45040;BME280;30778;53.574;7.770;2022-10-16T10:45:43;101269.19;;;14.95;44.25
45040;BME280;30778;53.574;7.770;2022-10-16T10:50:49;101281.84;;;15.87;41.86
45040;BME280;30778;53.574;7.770;2022-10-16T10:53:47;101291.25;;;15.75;41.58
45040;BME280;30778;53.574;7.770;2022-10-16T11:01:55;101292.94;;;15.28;42.49
45040;BME280;30778;53.574;7.770;2022-10-16T11:04:34;101292.94;;;15.28;41.71
45040;BME280;30778;53.574;7.770;2022-10-16T11:07:09;101301.38;;;15.67;41.51
45040;BME280;30778;53.574;7.770;2022-10-16T11:09:43;101309.84;;;15.40;40.92
45040;BME280;30778;53.574;7.770;2022-10-16T11:12:19;101307.25;;;15.05;41.47
45040;BME280;30778;53.574;7.770;2022-10-16T11:14:54;101289.72;;;15.55;40.42
45040;BME280;30778;53.574;7.770;2022-10-16T11:17:36;101311.59;;;13.81;43.65
45040;BME280;30778;53.574;7.770;2022-10-16T11:20:18;101312.69;;;14.67;41.81
45040;BME280;30778;53.574;7.770;2022-10-16T11:22:47;101311.91;;;14.83;40.66
45040;BME280;30778;53.574;7.770;2022-10-16T11:25:26;101319.50;;;15.06;41.24
45040;BME280;30778;53.574;7.770;2022-10-16T11:28:03;101321.47;;;15.36;40.97
45040;BME280;30778;53.574;7.770;2022-10-16T11:30:49;101331.59;;;14.93;41.37
45040;BME280;30778;53.574;7.770;2022-10-16T11:38:34;101331.41;;;15.64;39.25
45040;BME280;30778;53.574;7.770;2022-10-16T11:41:10;101329.97;;;15.41;40.58
45040;BME280;30778;53.574;7.770;2022-10-16T11:43:41;101341.41;;;14.72;41.03
45040;BME280;30778;53.574;7.770;2022-10-16T11:46:12;101340.34;;;14.93;39.74
45040;BME280;30778;53.574;7.770;2022-10-16T11:48:49;101335.72;;;15.32;39.23
45040;BME280;30778;53.574;7.770;2022-10-16T11:56:26;101342.44;;;15.71;37.78
45040;BME280;30778;53.574;7.770;2022-10-16T11:59:00;101346.81;;;15.54;38.80
45040;BME280;30778;53.574;7.770;2022-10-16T12:01:31;101354.41;;;15.27;38.78
45040;BME280;30778;53.574;7.770;2022-10-16T12:09:21;101361.69;;;15.40;38.56
45040;BME280;30778;53.574;7.770;2022-10-16T12:11:47;101365.28;;;15.70;38.52
45040;BME280;30778;53.574;7.770;2022-10-16T12:16:51;101363.03;;;16.44;37.23
45040;BME280;30778;53.574;7.770;2022-10-16T12:19:17;101367.81;;;16.21;37.12
45040;BME280;30778;53.574;7.770;2022-10-16T12:21:44;101366.28;;;16.17;37.05
45040;BME280;30778;53.574;7.770;2022-10-16T12:24:33;101364.03;;;16.57;36.04
45040;BME280;30778;53.574;7.770;2022-10-16T12:26:59;101368.63;;;15.74;37.25
45040;BME280;30778;53.574;7.770;2022-10-16T12:29:32;101364.22;;;15.90;37.36
45040;BME280;30778;53.574;7.770;2022-10-16T12:31:59;101373.78;;;15.26;37.67
45040;BME280;30778;53.574;7.770;2022-10-16T12:34:38;101379.34;;;15.37;37.16
45040;BME280;30778;53.574;7.770;2022-10-16T12:37:20;101372.53;;;15.83;36.34
45040;BME280;30778;53.574;7.770;2022-10-16T12:39:48;101380.97;;;16.53;34.62
45040;BME280;30778;53.574;7.770;2022-10-16T12:42:23;101394.31;;;16.81;34.26
45040;BME280;30778;53.574;7.770;2022-10-16T12:44:49;101391.84;;;16.78;34.44
45040;BME280;30778;53.574;7.770;2022-10-16T12:49:59;101406.75;;;16.79;35.15
45040;BME280;30778;53.574;7.770;2022-10-16T12:52:35;101413.31;;;17.47;33.99
45040;BME280;30778;53.574;7.770;2022-10-16T12:55:03;101407.44;;;17.42;34.00
45040;BME280;30778;53.574;7.770;2022-10-16T13:11:08;101436.19;;;16.72;36.04
45040;BME280;30778;53.574;7.770;2022-10-16T13:22:35;101456.03;;;15.49;39.09
45040;BME280;30778;53.574;7.770;2022-10-16T13:28:02;101475.03;;;16.86;36.14
45040;BME280;30778;53.574;7.770;2022-10-16T13:30:53;101472.03;;;17.22;35.17
45040;BME280;30778;53.574;7.770;2022-10-16T13:33:35;101481.19;;;17.16;34.99
45040;BME280;30778;53.574;7.770;2022-10-16T13:36:02;101480.47;;;18.16;33.46
45040;BME280;30778;53.574;7.770;2022-10-16T13:38:34;101481.31;;;17.88;32.54
45040;BME280;30778;53.574;7.770;2022-10-16T13:41:15;101488.69;;;17.08;34.33
45040;BME280;30778;53.574;7.770;2022-10-16T13:43:50;101495.63;;;17.55;33.46
45040;BME280;30778;53.574;7.770;2022-10-16T13:46:21;101493.94;;;17.24;33.77
45040;BME280;30778;53.574;7.770;2022-10-16T13:51:38;101503.25;;;17.15;34.43
45040;BME280;30778;53.574;7.770;2022-10-16T13:54:04;101505.22;;;17.12;34.24
45040;BME280;30778;53.574;7.770;2022-10-16T13:56:31;101510.75;;;17.23;33.64
45040;BME280;30778;53.574;7.770;2022-10-16T13:59:05;101510.53;;;16.96;34.46
45040;BME280;30778;53.574;7.770;2022-10-16T14:04:04;101512.56;;;16.59;35.26
45040;BME280;30778;53.574;7.770;2022-10-16T14:06:31;101518.41;;;16.16;36.23
45040;BME280;30778;53.574;7.770;2022-10-16T14:09:08;101525.81;;;16.41;35.74
45040;BME280;30778;53.574;7.770;2022-10-16T14:11:42;101522.09;;;15.62;37.33
45040;BME280;30778;53.574;7.770;2022-10-16T14:14:11;101533.41;;;15.81;36.82
45040;BME280;30778;53.574;7.770;2022-10-16T14:16:41;101531.31;;;16.05;35.78
45040;BME280;30778;53.574;7.770;2022-10-16T14:19:18;101535.06;;;16.17;35.80
45040;BME280;30778;53.574;7.770;2022-10-16T14:21:44;101555.47;;;15.96;36.45
45040;BME280;30778;53.574;7.770;2022-10-16T14:24:11;101546.09;;;16.57;35.06
45040;BME280;30778;53.574;7.770;2022-10-16T14:26:44;101552.00;;;15.95;36.02
45040;BME280;30778;53.574;7.770;2022-10-16T14:29:12;101557.34;;;16.45;34.52
45040;BME280;30778;53.574;7.770;2022-10-16T14:31:39;101558.47;;;17.04;34.06
45040;BME280;30778;53.574;7.770;2022-10-16T14:34:23;101568.34;;;17.16;33.87
45040;BME280;30778;53.574;7.770;2022-10-16T14:36:49;101563.97;;;16.52;34.89
45040;BME280;30778;53.574;7.770;2022-10-16T14:39:20;101574.84;;;16.95;34.21
45040;BME280;30778;53.574;7.770;2022-10-16T14:41:47;101565.56;;;16.23;35.58